Time;durP1;ratioP1;P1;durP2;ratioP2;P2;SDS_P1;SDS_P2;PMS_P1;PMS_P2;Temp;Humidity;BMP_temperature;BMP_pressure;BME280_temperature;BME280_humidity;BME280_pressure;Samples;Min_cycle;Max_cycle;Signal;HPM_P1;HPM_P2
2023/01/21 00:01:05;;;;;;;3.63;3.42;;;0.80;97.00;;;;;;5027333;28;20868;-72
2023/01/21 00:03:33;;;;;;;3.63;3.42;;;0.80;97.10;;;;;;5027308;28;20286;-72
2023/01/21 00:06:00;;;;;;;3.30;3.10;;;0.80;97.10;;;;;;5024942;28;20244;-71
2023/01/21 00:08:28;;;;;;;2.90;2.80;;;0.90;96.60;;;;;;5027980;28;20301;-72
2023/01/21 00:10:55;;;;;;;3.40;3.10;;;0.90;97.30;;;;;;5027042;28;20712;-72
2023/01/21 00:13:22;;;;;;;3.35;3.15;;;0.90;97.10;;;;;;5009409;28;20222;-72
2023/01/21 00:15:49;;;;;;;3.30;3.20;;;0.80;97.20;;;;;;5024800;28;20290;-71
2023/01/21 00:18:18;;;;;;;3.72;3.53;;;0.70;98.30;;;;;;5026268;28;20282;-72
2023/01/21 00:20:45;;;;;;;3.72;3.53;;;0.50;97.90;;;;;;5027661;28;20258;-72
2023/01/21 00:23:12;;;;;;;3.60;3.40;;;0.50;98.30;;;;;;5007396;28;20755;-72
2023/01/21 00:25:40;;;;;;;2.92;2.83;;;0.40;97.90;;;;;;5026002;28;20293;-72
2023/01/21 00:28:07;;;;;;;3.65;3.45;;;0.40;98.30;;;;;;5024933;28;20274;-71
2023/01/21 00:30:35;;;;;;;3.58;3.38;;;0.30;98.70;;;;;;5025766;28;20219;-71
2023/01/21 00:33:02;;;;;;;3.72;3.53;;;0.30;98.40;;;;;;5023191;28;20195;-71
2023/01/21 00:35:31;;;;;;;3.90;3.70;;;0.30;98.60;;;;;;5025125;28;20259;-71
2023/01/21 00:38:10;;;;;;;3.90;3.70;;;0.30;98.50;;;;;;5025884;28;20310;-71
2023/01/21 00:40:37;;;;;;;4.25;3.92;;;0.40;97.50;;;;;;5006403;28;20272;-71
2023/01/21 00:43:04;;;;;;;4.53;4.22;;;0.60;97.00;;;;;;5008960;28;20273;-71
2023/01/21 00:45:31;;;;;;;4.05;3.75;;;0.70;97.20;;;;;;5026907;28;21049;-71
2023/01/21 00:47:58;;;;;;;3.70;3.50;;;0.70;97.30;;;;;;5023070;28;20341;-71
2023/01/21 00:50:25;;;;;;;3.60;3.40;;;0.70;97.00;;;;;;5024511;28;20652;-71
2023/01/21 00:52:54;;;;;;;3.67;3.47;;;0.60;97.10;;;;;;5026174;28;20295;-71
2023/01/21 00:55:21;;;;;;;3.50;3.40;;;0.60;96.60;;;;;;5027164;28;20219;-72
2023/01/21 00:57:48;;;;;;;4.00;3.80;;;0.70;96.60;;;;;;5026409;28;20243;-71
2023/01/21 01:00:15;;;;;;;3.38;3.17;;;0.70;96.50;;;;;;5024453;28;20215;-71
2023/01/21 01:02:43;;;;;;;4.03;3.80;;;0.70;96.90;;;;;;5025550;28;20196;-72
2023/01/21 01:05:10;;;;;;;3.58;3.38;;;0.70;96.70;;;;;;5010545;28;20223;-72
2023/01/21 01:07:39;;;;;;;3.22;3.13;;;0.60;96.50;;;;;;5025468;28;20358;-72
2023/01/21 01:10:10;;;;;;;3.53;3.33;;;0.70;96.30;;;;;;5023529;28;20277;-72
2023/01/21 01:12:37;;;;;;;3.42;3.33;;;0.70;96.90;;;;;;5023453;28;20282;-72
2023/01/21 01:15:05;;;;;;;3.85;3.65;;;0.60;97.10;;;;;;5009119;28;20289;-72
2023/01/21 01:17:32;;;;;;;3.17;3.08;;;0.60;96.80;;;;;;5006115;28;20350;-72
2023/01/21 01:19:59;;;;;;;3.38;3.17;;;0.70;96.80;;;;;;5024360;28;20318;-72
2023/01/21 01:22:27;;;;;;;2.83;2.72;;;0.70;96.40;;;;;;5026194;28;20233;-72
2023/01/21 01:24:54;;;;;;;3.30;3.17;;;0.80;96.50;;;;;;5006833;28;20731;-72
2023/01/21 01:27:22;;;;;;;3.72;3.53;;;0.80;96.50;;;;;;5006586;28;20212;-72
2023/01/21 01:29:49;;;;;;;3.45;3.25;;;0.90;95.90;;;;;;5025823;28;20231;-72
2023/01/21 01:32:16;;;;;;;3.53;3.42;;;0.90;96.20;;;;;;5025509;28;20283;-72
2023/01/21 01:34:43;;;;;;;3.38;3.20;;;0.90;96.30;;;;;;5005455;28;20251;-72
2023/01/21 01:37:10;;;;;;;3.60;3.40;;;0.80;96.60;;;;;;5024907;28;20262;-72
2023/01/21 01:39:38;;;;;;;3.65;3.45;;;0.80;96.50;;;;;;5007036;28;20223;-72
2023/01/21 01:42:05;;;;;;;3.30;3.20;;;0.90;95.90;;;;;;5029665;28;20245;-72
2023/01/21 01:44:57;;;;;;;3.35;3.15;;;0.90;95.90;;;;;;5024626;28;20773;-72
2023/01/21 01:47:30;;;;;;;3.10;3.00;;;1.00;95.40;;;;;;5030640;28;20250;-71
2023/01/21 01:49:59;;;;;;;3.53;3.35;;;1.00;95.70;;;;;;5029484;28;20271;-72
2023/01/21 01:52:27;;;;;;;3.42;3.25;;;1.00;95.80;;;;;;5028127;28;20228;-72
2023/01/21 01:54:57;;;;;;;3.17;3.08;;;0.90;95.60;;;;;;5026124;28;20300;-71
2023/01/21 01:57:28;;;;;;;3.40;3.22;;;0.90;95.50;;;;;;5011661;28;20243;-72
2023/01/21 01:59:57;;;;;;;3.00;2.90;;;0.90;95.30;;;;;;5028368;28;20243;-71
2023/01/21 02:02:24;;;;;;;3.70;3.50;;;0.90;95.30;;;;;;5028654;28;20274;-71
2023/01/21 02:04:55;;;;;;;3.47;3.28;;;1.00;95.50;;;;;;5027371;28;20251;-71
2023/01/21 02:07:24;;;;;;;3.00;2.90;;;0.90;95.20;;;;;;5029273;28;20748;-71
2023/01/21 02:09:52;;;;;;;3.17;3.08;;;1.00;94.80;;;;;;5026661;28;20306;-71
2023/01/21 02:12:20;;;;;;;3.03;2.92;;;1.00;95.10;;;;;;5030144;28;20199;-71
2023/01/21 02:14:47;;;;;;;3.30;3.20;;;0.90;94.80;;;;;;5029559;28;20306;-71
2023/01/21 02:17:31;;;;;;;3.45;3.25;;;0.90;95.50;;;;;;5011860;28;20741;-71
2023/01/21 02:20:46;;;;;;;3.80;3.60;;;0.80;95.90;;;;;;5022490;28;20231;-72
2023/01/21 02:23:19;;;;;;;3.08;2.97;;;0.70;95.80;;;;;;4971673;28;20221;-72
2023/01/21 02:26:21;;;;;;;3.38;3.17;;;0.70;95.90;;;;;;5013879;28;20246;-72
2023/01/21 02:29:19;;;;;;;3.72;3.53;;;0.60;96.50;;;;;;5026072;28;20195;-72
2023/01/21 02:32:19;;;;;;;3.17;3.03;;;0.60;96.60;;;;;;5011930;28;20599;-72
2023/01/21 02:34:52;;;;;;;3.50;3.38;;;0.60;96.10;;;;;;5026110;28;20302;-73
2023/01/21 02:37:28;;;;;;;3.17;3.00;;;0.60;96.30;;;;;;5026048;28;20306;-73
2023/01/21 02:40:06;;;;;;;3.00;2.90;;;0.60;96.30;;;;;;5027417;28;20497;-73
2023/01/21 02:42:40;;;;;;;3.17;3.05;;;0.60;96.20;;;;;;5028362;28;20673;-73
2023/01/21 02:45:16;;;;;;;3.35;2.90;;;0.60;96.20;;;;;;5026259;28;20770;-73
2023/01/21 02:47:52;;;;;;;3.13;2.92;;;0.60;95.90;;;;;;5013281;28;20220;-73
2023/01/21 02:50:24;;;;;;;3.33;3.13;;;0.50;96.20;;;;;;5026331;28;20305;-72
2023/01/21 02:52:59;;;;;;;2.97;2.88;;;0.50;96.80;;;;;;5029498;28;20283;-72
2023/01/21 02:55:30;;;;;;;3.17;3.08;;;0.50;97.60;;;;;;5025644;28;20310;-72
2023/01/21 02:58:01;;;;;;;3.42;3.30;;;0.40;97.60;;;;;;5029593;28;20243;-72
2023/01/21 03:00:35;;;;;;;3.17;3.08;;;0.40;97.80;;;;;;5028069;28;20318;-72
2023/01/21 03:03:30;;;;;;;3.15;3.00;;;0.40;97.40;;;;;;5024872;28;20307;-72
2023/01/21 03:06:18;;;;;;;3.20;3.10;;;0.40;97.20;;;;;;5027930;28;20219;-71
2023/01/21 03:08:50;;;;;;;3.75;3.55;;;0.30;97.30;;;;;;5028614;28;20278;-72
2023/01/21 03:11:19;;;;;;;3.20;3.10;;;0.40;96.50;;;;;;5024145;28;20226;-72
2023/01/21 03:16:58;;;;;;;3.10;3.00;;;0.60;96.50;;;;;;5025903;28;20262;-71
2023/01/21 03:19:32;;;;;;;3.58;3.47;;;0.70;96.50;;;;;;5027075;28;20191;-72
2023/01/21 03:22:05;;;;;;;3.20;3.10;;;0.60;96.50;;;;;;5024915;28;20235;-71
2023/01/21 03:24:34;;;;;;;3.38;3.28;;;0.60;96.30;;;;;;5007663;28;20223;-71
2023/01/21 03:27:02;;;;;;;3.80;3.60;;;0.60;96.30;;;;;;5024812;28;20251;-71
2023/01/21 03:29:31;;;;;;;3.50;3.35;;;0.70;96.00;;;;;;5025471;28;20286;-71
2023/01/21 03:32:02;;;;;;;3.28;3.10;;;0.70;96.10;;;;;;5028309;28;20279;-71
2023/01/21 03:34:33;;;;;;;3.17;3.00;;;0.70;96.40;;;;;;5008709;28;20215;-71
2023/01/21 03:37:06;;;;;;;3.08;2.97;;;0.70;96.10;;;;;;5028163;28;20326;-71
2023/01/21 03:39:40;;;;;;;3.35;3.25;;;0.80;95.80;;;;;;5026681;28;20306;-71
2023/01/21 03:42:08;;;;;;;3.65;3.45;;;0.90;95.60;;;;;;5010635;28;20196;-71
2023/01/21 03:44:36;;;;;;;3.47;3.30;;;0.90;95.70;;;;;;5026495;28;20829;-71
2023/01/21 03:47:13;;;;;;;3.50;3.40;;;0.80;96.00;;;;;;5026613;28;20306;-71
2023/01/21 03:49:46;;;;;;;3.50;3.30;;;0.90;95.70;;;;;;5006577;28;20219;-71
2023/01/21 03:52:17;;;;;;;2.58;2.47;;;0.90;95.70;;;;;;5027949;28;20294;-72
2023/01/21 03:54:46;;;;;;;2.80;2.70;;;0.90;95.50;;;;;;5025708;28;20314;-72
2023/01/21 03:57:14;;;;;;;3.47;3.28;;;0.90;95.80;;;;;;5010503;28;20260;-72
2023/01/21 03:59:41;;;;;;;3.28;3.13;;;0.90;96.10;;;;;;5027474;28;20293;-71
2023/01/21 04:02:08;;;;;;;3.72;3.58;;;0.90;95.60;;;;;;5028382;28;20227;-72
2023/01/21 04:04:35;;;;;;;3.00;2.90;;;0.90;95.80;;;;;;5027883;28;20296;-71
2023/01/21 04:07:02;;;;;;;3.15;3.05;;;1.00;95.40;;;;;;5025581;28;20709;-71
2023/01/21 04:09:31;;;;;;;3.65;3.35;;;1.00;95.30;;;;;;5029590;28;20287;-71
2023/01/21 04:11:59;;;;;;;3.28;3.15;;;1.00;95.30;;;;;;5027342;28;20283;-71
2023/01/21 04:14:26;;;;;;;3.05;2.85;;;1.10;95.30;;;;;;5024322;28;20665;-71
2023/01/21 04:16:54;;;;;;;2.95;2.85;;;1.10;95.30;;;;;;5029250;28;20311;-72
2023/01/21 04:19:21;;;;;;;2.90;2.72;;;1.20;94.60;;;;;;5029508;28;20203;-73
2023/01/21 04:21:48;;;;;;;2.95;2.85;;;1.30;94.40;;;;;;5009847;28;20202;-72
2023/01/21 04:24:15;;;;;;;3.10;3.00;;;1.30;94.50;;;;;;5027261;28;20295;-72
2023/01/21 04:26:44;;;;;;;3.00;2.90;;;1.30;94.30;;;;;;5010695;28;20212;-72
2023/01/21 04:29:11;;;;;;;3.65;3.45;;;1.30;94.30;;;;;;5028438;28;20633;-72
2023/01/21 04:31:38;;;;;;;3.17;3.08;;;1.30;94.20;;;;;;5019391;28;20199;-72
2023/01/21 04:34:05;;;;;;;2.53;2.42;;;1.40;94.20;;;;;;5016109;28;20223;-72
2023/01/21 04:36:32;;;;;;;3.33;3.22;;;1.40;94.00;;;;;;5009259;28;20219;-72
2023/01/21 04:38:59;;;;;;;3.17;3.08;;;1.30;94.10;;;;;;5028313;28;20257;-72
2023/01/21 04:41:27;;;;;;;3.10;3.00;;;1.40;94.30;;;;;;5026492;28;20278;-72
2023/01/21 04:43:55;;;;;;;3.40;3.22;;;1.40;94.20;;;;;;5027933;28;20273;-72
2023/01/21 04:46:22;;;;;;;2.83;2.72;;;1.40;93.90;;;;;;5006595;28;20368;-72
2023/01/21 04:48:49;;;;;;;3.30;3.20;;;1.40;93.80;;;;;;5028047;28;20283;-71
2023/01/21 04:51:16;;;;;;;3.53;3.42;;;1.40;94.20;;;;;;5026560;28;20270;-71
2023/01/21 04:53:43;;;;;;;3.20;3.10;;;1.40;94.20;;;;;;5025551;28;20339;-71
2023/01/21 04:56:10;;;;;;;3.08;2.97;;;1.40;94.10;;;;;;5027051;28;20311;-71
2023/01/21 04:58:38;;;;;;;3.13;3.03;;;1.40;94.20;;;;;;5027108;28;20291;-72
2023/01/21 05:01:06;;;;;;;3.13;3.03;;;1.40;93.90;;;;;;5021508;28;20308;-72
2023/01/21 05:03:33;;;;;;;3.75;3.55;;;1.40;94.10;;;;;;5025428;28;20286;-72
2023/01/21 05:06:00;;;;;;;3.78;3.58;;;1.40;94.20;;;;;;5024294;28;20301;-72
2023/01/21 05:08:27;;;;;;;3.25;3.05;;;1.40;94.20;;;;;;5026927;28;20294;-72
2023/01/21 05:10:54;;;;;;;3.10;3.00;;;1.40;94.10;;;;;;5021672;28;20227;-72
2023/01/21 05:13:21;;;;;;;3.50;3.30;;;1.40;94.10;;;;;;5019369;28;20204;-72
2023/01/21 05:15:49;;;;;;;3.47;3.38;;;1.40;93.80;;;;;;5024044;28;20744;-72
2023/01/21 05:18:17;;;;;;;3.42;3.22;;;1.40;93.60;;;;;;5021582;28;20295;-72
2023/01/21 05:20:44;;;;;;;3.22;3.08;;;1.50;94.10;;;;;;5023250;28;20271;-72
2023/01/21 05:23:11;;;;;;;3.30;3.10;;;1.50;94.10;;;;;;5024745;28;20672;-72
2023/01/21 05:25:38;;;;;;;3.47;3.17;;;1.40;94.30;;;;;;5026014;28;20212;-72
2023/01/21 05:28:06;;;;;;;3.47;3.28;;;1.40;93.90;;;;;;5005498;28;20586;-71
2023/01/21 05:30:33;;;;;;;3.03;2.83;;;1.40;93.60;;;;;;5022639;28;20323;-72
2023/01/21 05:33:00;;;;;;;2.78;2.67;;;1.50;93.80;;;;;;5008126;28;20227;-72
2023/01/21 05:35:28;;;;;;;3.10;3.00;;;1.50;93.50;;;;;;5024691;28;20247;-71
2023/01/21 05:37:56;;;;;;;3.03;2.92;;;1.50;93.60;;;;;;5021865;28;20306;-72
2023/01/21 05:40:23;;;;;;;3.22;3.13;;;1.50;93.90;;;;;;5020123;28;20223;-72
2023/01/21 05:42:50;;;;;;;3.75;3.55;;;1.50;93.50;;;;;;5010556;28;20202;-72
2023/01/21 05:45:17;;;;;;;2.95;2.85;;;1.50;93.70;;;;;;5006736;28;20225;-72
2023/01/21 05:47:45;;;;;;;2.88;2.78;;;1.40;93.50;;;;;;5006695;28;20689;-72
2023/01/21 05:50:12;;;;;;;2.90;2.80;;;1.40;93.60;;;;;;5020048;28;20306;-72
2023/01/21 05:52:41;;;;;;;3.45;3.25;;;1.40;93.40;;;;;;5010359;28;20276;-72
2023/01/21 05:55:08;;;;;;;3.15;3.05;;;1.40;93.90;;;;;;5009385;28;20318;-72
2023/01/21 05:57:35;;;;;;;2.88;2.78;;;1.40;93.90;;;;;;5025611;28;20298;-72
2023/01/21 06:00:02;;;;;;;3.45;3.30;;;1.40;93.90;;;;;;5020958;28;20254;-72
2023/01/21 06:02:29;;;;;;;2.80;2.70;;;1.40;93.80;;;;;;5022609;28;20740;-72
2023/01/21 06:04:56;;;;;;;3.58;3.38;;;1.50;93.70;;;;;;5025510;28;20768;-72
2023/01/21 06:07:23;;;;;;;2.85;2.75;;;1.50;93.50;;;;;;5010032;28;20592;-72
2023/01/21 06:09:52;;;;;;;3.58;3.38;;;1.60;93.30;;;;;;5020605;28;20240;-73
2023/01/21 06:12:18;;;;;;;3.33;3.15;;;1.60;93.50;;;;;;5024782;28;20592;-73
2023/01/21 06:14:45;;;;;;;3.45;3.30;;;1.60;93.40;;;;;;5006017;28;20615;-72
2023/01/21 06:17:12;;;;;;;3.40;3.20;;;1.60;93.30;;;;;;5023548;28;20243;-71
2023/01/21 06:19:39;;;;;;;3.55;3.40;;;1.50;93.40;;;;;;5023002;28;20299;-72
2023/01/21 06:22:07;;;;;;;3.33;3.22;;;1.50;93.40;;;;;;5022835;28;20288;-70
2023/01/21 06:24:34;;;;;;;3.35;3.20;;;1.50;93.50;;;;;;5023660;28;20337;-73
2023/01/21 06:27:02;;;;;;;3.17;3.03;;;1.50;93.70;;;;;;5020785;28;20219;-73
2023/01/21 06:29:29;;;;;;;3.55;3.35;;;1.40;93.90;;;;;;5028157;28;20878;-71
2023/01/21 06:31:56;;;;;;;3.25;3.15;;;1.50;93.60;;;;;;5026846;28;20278;-73
2023/01/21 06:34:23;;;;;;;3.67;3.47;;;1.50;93.30;;;;;;5033649;28;20286;-72
2023/01/21 06:36:50;;;;;;;3.58;3.47;;;1.60;93.20;;;;;;5026787;28;20243;-73
2023/01/21 06:39:18;;;;;;;3.13;3.03;;;1.60;93.60;;;;;;5020326;28;20232;-71
2023/01/21 06:41:44;;;;;;;3.30;3.20;;;1.60;93.70;;;;;;5025922;28;20673;-72
2023/01/21 06:44:13;;;;;;;3.40;3.30;;;1.60;93.30;;;;;;5026636;28;20196;-72
2023/01/21 06:46:40;;;;;;;3.42;3.22;;;1.60;93.60;;;;;;5027658;28;20294;-71
2023/01/21 06:49:08;;;;;;;3.38;3.10;;;1.60;93.50;;;;;;5026595;28;20294;-71
2023/01/21 06:51:35;;;;;;;3.20;3.00;;;1.60;93.40;;;;;;5026803;28;20305;-71
2023/01/21 06:54:02;;;;;;;4.07;2.85;;;1.70;93.30;;;;;;5024708;28;20257;-72
2023/01/21 06:56:29;;;;;;;3.67;3.47;;;1.70;92.80;;;;;;5026988;28;20307;-72
2023/01/21 06:58:56;;;;;;;3.75;3.55;;;1.70;92.70;;;;;;5027942;28;20290;-71
2023/01/21 07:01:24;;;;;;;2.95;2.85;;;1.80;93.00;;;;;;5013363;28;20253;-72
2023/01/21 07:03:51;;;;;;;3.20;3.10;;;1.80;93.00;;;;;;5020902;28;20231;-71
2023/01/21 07:06:20;;;;;;;3.72;3.53;;;1.80;93.10;;;;;;5008399;28;20223;-70
2023/01/21 07:08:47;;;;;;;3.10;3.00;;;1.80;93.20;;;;;;5026993;28;20195;-71
2023/01/21 07:11:15;;;;;;;3.55;3.35;;;1.80;93.10;;;;;;5028434;28;20298;-71
2023/01/21 07:13:42;;;;;;;5.30;4.90;;;1.80;93.30;;;;;;5011638;28;20227;-71
2023/01/21 07:16:09;;;;;;;5.22;4.82;;;1.80;93.30;;;;;;5020293;28;20220;-71
2023/01/21 07:18:37;;;;;;;4.95;4.20;;;1.80;93.30;;;;;;5026618;28;20287;-72
2023/01/21 07:21:04;;;;;;;4.60;4.25;;;1.80;93.30;;;;;;5027295;28;20254;-71
2023/01/21 07:23:31;;;;;;;4.25;4.05;;;1.80;93.20;;;;;;5025093;28;20207;-72
2023/01/21 07:25:58;;;;;;;3.70;3.50;;;1.90;93.30;;;;;;5025249;28;20219;-72
2023/01/21 07:28:25;;;;;;;3.85;3.55;;;1.90;93.00;;;;;;5024407;28;20230;-72
2023/01/21 07:30:53;;;;;;;3.83;3.63;;;1.90;93.00;;;;;;5027178;28;20290;-71
2023/01/21 07:33:19;;;;;;;3.88;3.67;;;2.00;93.00;;;;;;5028200;28;20326;-73
2023/01/21 07:35:48;;;;;;;3.53;3.35;;;2.10;93.00;;;;;;5025741;28;20693;-73
2023/01/21 07:38:16;;;;;;;3.20;3.00;;;2.20;93.30;;;;;;5022119;28;20219;-73
2023/01/21 07:40:43;;;;;;;3.72;3.53;;;2.20;92.70;;;;;;5024079;28;20309;-71
2023/01/21 07:43:10;;;;;;;3.22;3.13;;;2.20;92.70;;;;;;5024638;28;20237;-72
2023/01/21 07:45:38;;;;;;;3.78;3.47;;;2.30;92.00;;;;;;5023255;28;20767;-71
2023/01/21 07:48:06;;;;;;;3.80;3.60;;;2.40;91.90;;;;;;5007759;28;20227;-71
2023/01/21 07:50:33;;;;;;;3.10;2.90;;;2.50;91.80;;;;;;5025681;28;20656;-71
2023/01/21 07:53:03;;;;;;;3.38;3.25;;;2.50;92.10;;;;;;5007973;28;20278;-70
2023/01/21 07:55:31;;;;;;;3.80;3.60;;;2.60;91.90;;;;;;5026597;28;20220;-71
2023/01/21 07:57:58;;;;;;;3.78;3.47;;;2.60;91.50;;;;;;5002971;28;20315;-72
2023/01/21 08:00:28;;;;;;;4.40;4.10;;;2.60;92.20;;;;;;5028360;28;20227;-72
2023/01/21 08:02:55;;;;;;;4.18;3.92;;;2.60;92.00;;;;;;5024961;28;20210;-72
2023/01/21 08:05:23;;;;;;;4.60;4.30;;;2.60;91.80;;;;;;5021482;28;20243;-72
2023/01/21 08:07:50;;;;;;;4.25;3.95;;;2.50;92.30;;;;;;5009854;28;20301;-72
2023/01/21 08:10:21;;;;;;;4.63;4.32;;;2.50;92.40;;;;;;5024539;28;20306;-72
2023/01/21 08:12:48;;;;;;;4.43;4.13;;;2.40;92.70;;;;;;5022498;28;20206;-73
2023/01/21 08:15:15;;;;;;;4.50;4.20;;;2.30;93.10;;;;;;5025660;28;20238;-72
2023/01/21 08:17:43;;;;;;;3.65;3.45;;;2.20;93.20;;;;;;5025635;28;20639;-72
2023/01/21 08:20:12;;;;;;;4.05;3.83;;;2.30;93.20;;;;;;5020362;28;20235;-72
2023/01/21 08:22:39;;;;;;;4.45;4.15;;;3.00;93.20;;;;;;5008416;28;20274;-72
2023/01/21 08:25:07;;;;;;;3.78;3.58;;;3.90;92.50;;;;;;5023254;28;20281;-72
2023/01/21 08:27:36;;;;;;;3.42;3.22;;;4.60;92.60;;;;;;5023183;28;20270;-72
2023/01/21 08:30:03;;;;;;;3.13;2.92;;;5.30;91.80;;;;;;5023921;28;20243;-72
2023/01/21 08:32:31;;;;;;;3.75;3.53;;;5.70;91.00;;;;;;5025961;28;20223;-72
2023/01/21 08:34:58;;;;;;;3.05;2.90;;;6.00;90.50;;;;;;5022210;28;20215;-72
2023/01/21 08:37:25;;;;;;;3.03;2.83;;;6.40;89.10;;;;;;5024027;28;20325;-73
2023/01/21 08:39:52;;;;;;;3.63;3.25;;;6.60;88.40;;;;;;5026313;28;20246;-73
2023/01/21 08:42:19;;;;;;;3.05;2.83;;;6.80;87.80;;;;;;5005295;28;20254;-73
2023/01/21 08:44:49;;;;;;;3.33;3.13;;;7.00;87.60;;;;;;5020023;28;20309;-73
2023/01/21 08:47:17;;;;;;;5.38;4.85;;;7.20;87.20;;;;;;5024380;28;20298;-73
2023/01/21 08:49:44;;;;;;;3.63;3.42;;;7.40;87.10;;;;;;5027062;28;20305;-73
2023/01/21 08:52:12;;;;;;;3.20;3.00;;;7.50;87.90;;;;;;5022900;28;20286;-72
2023/01/21 08:54:40;;;;;;;3.33;3.10;;;7.60;87.50;;;;;;5009241;28;20298;-73
2023/01/21 08:57:07;;;;;;;3.90;3.60;;;7.60;87.50;;;;;;5024296;28;20226;-73
2023/01/21 08:59:34;;;;;;;3.35;3.15;;;7.40;88.20;;;;;;5023417;28;20239;-73
2023/01/21 09:02:02;;;;;;;2.95;2.85;;;7.60;89.30;;;;;;5022351;28;20315;-73
2023/01/21 09:04:30;;;;;;;4.25;3.47;;;7.90;87.30;;;;;;5024277;28;20728;-73
2023/01/21 09:06:57;;;;;;;3.33;3.13;;;8.40;87.20;;;;;;5021654;28;20331;-73
2023/01/21 09:09:23;;;;;;;4.13;3.75;;;8.30;84.80;;;;;;5015352;28;20235;-73
2023/01/21 09:11:51;;;;;;;3.28;3.08;;;8.70;86.70;;;;;;5019180;28;20292;-73
2023/01/21 09:14:18;;;;;;;3.13;2.92;;;9.10;86.20;;;;;;5020126;28;20230;-74
2023/01/21 09:16:49;;;;;;;3.40;3.10;;;9.00;84.10;;;;;;5020728;28;20235;-73
2023/01/21 09:19:18;;;;;;;2.60;2.50;;;9.10;85.20;;;;;;5022103;28;20203;-73
2023/01/21 09:21:45;;;;;;;3.00;2.80;;;9.30;84.80;;;;;;5020105;28;20203;-73
2023/01/21 09:24:12;;;;;;;2.85;2.65;;;9.30;84.40;;;;;;5014956;28;20314;-74
2023/01/21 09:26:43;;;;;;;2.70;2.50;;;9.50;84.20;;;;;;5015313;28;20308;-73
2023/01/21 09:29:11;;;;;;;2.65;2.45;;;10.00;82.50;;;;;;5018203;28;20573;-73
2023/01/21 09:31:38;;;;;;;2.70;2.50;;;11.00;79.90;;;;;;5002487;28;20242;-73
2023/01/21 09:34:06;;;;;;;2.60;2.40;;;12.90;77.90;;;;;;5017181;28;20311;-73
2023/01/21 09:36:35;;;;;;;3.53;2.40;;;14.90;72.20;;;;;;5018017;28;20229;-73
2023/01/21 09:39:02;;;;;;;2.70;2.50;;;16.60;65.00;;;;;;5018712;28;20209;-73
2023/01/21 09:41:34;;;;;;;2.05;1.95;;;18.00;56.70;;;;;;4991548;28;20230;-73
2023/01/21 09:44:07;;;;;;;2.70;2.22;;;18.80;54.50;;;;;;5022515;28;21072;-73
2023/01/21 09:46:40;;;;;;;3.63;2.38;;;19.30;50.70;;;;;;5017690;28;20300;-73
2023/01/21 09:49:13;;;;;;;2.60;2.20;;;19.60;50.40;;;;;;5021494;28;20249;-74
2023/01/21 09:51:51;;;;;;;2.03;1.92;;;19.90;48.20;;;;;;5024879;28;20297;-73
2023/01/21 09:54:38;;;;;;;3.92;2.25;;;19.80;46.40;;;;;;5022967;28;20250;-74
2023/01/21 09:57:44;;;;;;;2.13;2.00;;;19.30;47.30;;;;;;5009251;28;20309;-73
2023/01/21 10:00:31;;;;;;;2.10;2.00;;;18.30;48.00;;;;;;5001896;28;20331;-73
2023/01/21 10:03:12;;;;;;;1.90;1.80;;;17.00;48.10;;;;;;5025715;28;20697;-74
2023/01/21 10:05:59;;;;;;;1.90;1.80;;;14.60;50.70;;;;;;5002477;28;20320;-74
2023/01/21 10:08:36;;;;;;;1.75;1.65;;;12.80;53.90;;;;;;5025849;28;20217;-73
2023/01/21 10:11:21;;;;;;;2.08;1.98;;;11.70;57.20;;;;;;5025833;28;20235;-73
2023/01/21 10:14:04;;;;;;;2.10;2.00;;;11.00;57.30;;;;;;5024174;28;20206;-73
2023/01/21 10:16:39;;;;;;;3.45;2.30;;;10.40;58.20;;;;;;5000579;28;20251;-73
2023/01/21 10:19:09;;;;;;;1.80;1.70;;;10.30;58.80;;;;;;5030384;28;20242;-73
2023/01/21 10:21:43;;;;;;;2.08;1.88;;;10.30;58.50;;;;;;5023080;28;20954;-73
2023/01/21 10:24:15;;;;;;;2.30;2.20;;;10.20;58.90;;;;;;5019921;28;20245;-73
2023/01/21 10:26:43;;;;;;;2.33;2.20;;;10.30;59.00;;;;;;5024113;28;20765;-74
2023/01/21 10:29:16;;;;;;;1.85;1.75;;;10.50;59.30;;;;;;5026287;28;20291;-73
2023/01/21 10:31:47;;;;;;;1.85;1.75;;;10.30;57.50;;;;;;5028075;28;20219;-73
2023/01/21 10:34:17;;;;;;;1.73;1.70;;;10.10;57.60;;;;;;5021016;28;20285;-73
2023/01/21 10:36:57;;;;;;;2.17;2.08;;;10.10;58.10;;;;;;5025525;28;20277;-74
2023/01/21 10:39:37;;;;;;;2.25;2.15;;;10.10;60.50;;;;;;5024692;28;20282;-73
2023/01/21 10:42:17;;;;;;;1.85;1.75;;;10.40;60.10;;;;;;5025898;28;20191;-73
2023/01/21 10:44:53;;;;;;;2.10;2.00;;;10.50;58.40;;;;;;5023701;28;20300;-73
2023/01/21 10:47:30;;;;;;;2.30;2.20;;;10.50;58.50;;;;;;5026032;28;20243;-73
2023/01/21 10:50:03;;;;;;;2.10;2.00;;;10.70;61.00;;;;;;5029198;28;20261;-73
2023/01/21 10:52:37;;;;;;;1.73;1.73;;;10.90;60.20;;;;;;5025055;28;20261;-73
2023/01/21 10:55:19;;;;;;;1.80;1.70;;;10.80;58.60;;;;;;5012587;28;20250;-73
2023/01/21 10:57:55;;;;;;;1.98;1.88;;;10.50;57.60;;;;;;5008760;28;20613;-73
2023/01/21 11:00:28;;;;;;;2.45;1.92;;;10.20;59.00;;;;;;5023103;28;20239;-73
2023/01/21 11:03:01;;;;;;;2.10;2.00;;;10.50;60.60;;;;;;5020702;28;20196;-74
2023/01/21 11:05:30;;;;;;;1.50;1.50;;;10.60;59.40;;;;;;5026297;28;20232;-74
2023/01/21 11:07:58;;;;;;;1.88;1.77;;;10.90;60.70;;;;;;5009298;28;20220;-74
2023/01/21 11:10:27;;;;;;;1.50;1.50;;;10.80;57.40;;;;;;5009209;28;20295;-74
2023/01/21 11:12:55;;;;;;;2.00;1.90;;;10.70;58.60;;;;;;5024585;28;20275;-74
2023/01/21 11:15:23;;;;;;;2.20;2.08;;;10.70;58.20;;;;;;5023146;28;20247;-74
2023/01/21 11:17:55;;;;;;;1.75;1.65;;;10.60;58.30;;;;;;5027366;28;20258;-74
2023/01/21 11:20:25;;;;;;;2.00;1.90;;;10.60;59.50;;;;;;5007956;28;20651;-74
2023/01/21 11:22:52;;;;;;;2.13;2.03;;;10.80;58.90;;;;;;5026211;28;20235;-74
2023/01/21 11:25:35;;;;;;;2.30;2.20;;;11.10;60.00;;;;;;5023186;28;20323;-74
2023/01/21 11:28:03;;;;;;;1.60;1.60;;;11.40;59.80;;;;;;4998133;28;21839;-74
2023/01/21 11:30:34;;;;;;;2.35;1.80;;;11.00;57.80;;;;;;5021777;28;20342;-74
2023/01/21 11:33:28;;;;;;;1.92;1.83;;;10.80;58.20;;;;;;5028423;28;20239;-74
2023/01/21 11:35:57;;;;;;;2.53;2.00;;;10.80;58.90;;;;;;4987924;28;20226;-73
2023/01/21 11:38:31;;;;;;;2.10;2.00;;;10.80;58.60;;;;;;5022798;28;20212;-74
2023/01/21 11:41:06;;;;;;;2.17;2.08;;;10.40;58.00;;;;;;5021425;28;20219;-74
2023/01/21 11:43:35;;;;;;;2.15;1.75;;;10.40;60.00;;;;;;5024020;28;20199;-74
2023/01/21 11:46:28;;;;;;;2.10;2.00;;;10.60;60.30;;;;;;5020199;28;20321;-73
2023/01/21 11:48:57;;;;;;;2.22;2.13;;;10.80;60.50;;;;;;5024061;28;20223;-74
2023/01/21 11:51:24;;;;;;;2.13;2.03;;;10.80;59.50;;;;;;5021763;28;20254;-74
2023/01/21 11:54:07;;;;;;;1.95;1.85;;;10.50;58.30;;;;;;5020944;28;20255;-74
2023/01/21 11:56:37;;;;;;;2.53;2.40;;;10.20;58.80;;;;;;5021495;28;20310;-73
2023/01/21 11:59:17;;;;;;;2.10;1.90;;;10.10;59.60;;;;;;5021286;28;20215;-74
2023/01/21 12:01:52;;;;;;;2.00;1.90;;;9.90;59.70;;;;;;5016396;28;20273;-75
2023/01/21 12:04:19;;;;;;;2.10;2.00;;;9.40;59.20;;;;;;5019085;28;20290;-74
2023/01/21 12:06:50;;;;;;;2.10;2.00;;;9.30;60.70;;;;;;5018815;28;20299;-74
2023/01/21 12:09:20;;;;;;;1.88;1.77;;;9.20;60.40;;;;;;5020748;28;20192;-75
2023/01/21 12:12:15;;;;;;;3.47;2.35;;;8.90;60.80;;;;;;4990255;28;20195;-74
2023/01/21 12:14:52;;;;;;;2.70;2.50;;;8.90;62.00;;;;;;5003038;28;20741;-73
2023/01/21 12:17:31;;;;;;;2.78;2.63;;;8.80;62.70;;;;;;5004698;28;20215;-74
2023/01/21 12:20:14;;;;;;;2.03;1.92;;;8.80;63.30;;;;;;5024216;28;20250;-72
2023/01/21 12:23:00;;;;;;;2.58;2.47;;;8.80;63.10;;;;;;5025392;28;20278;-72
2023/01/21 12:25:39;;;;;;;2.10;2.00;;;8.50;62.50;;;;;;5000898;28;20781;-74
2023/01/21 12:28:41;;;;;;;2.67;2.50;;;8.40;62.90;;;;;;5022374;28;20211;-73
2023/01/21 12:31:22;;;;;;;2.60;2.40;;;8.20;63.40;;;;;;5020881;28;20222;-73
2023/01/21 12:33:55;;;;;;;2.40;2.20;;;8.10;63.40;;;;;;5022509;28;20191;-74
2023/01/21 12:36:29;;;;;;;2.88;2.67;;;8.10;63.90;;;;;;5022669;28;20314;-74
2023/01/21 12:39:11;;;;;;;6.00;1.80;;;8.00;64.60;;;;;;5024157;28;20302;-74
2023/01/21 12:41:43;;;;;;;3.38;2.05;;;8.00;63.40;;;;;;5021102;28;20302;-72
2023/01/21 12:44:26;;;;;;;2.63;2.42;;;7.90;64.40;;;;;;5005083;28;20227;-72
2023/01/21 12:46:56;;;;;;;2.50;2.30;;;8.10;70.50;;;;;;5003139;28;20225;-72
2023/01/21 12:49:29;;;;;;;2.53;2.33;;;8.10;65.30;;;;;;5003424;28;20637;-73
2023/01/21 12:52:03;;;;;;;2.40;2.20;;;8.30;66.50;;;;;;5021777;28;20581;-72
2023/01/21 12:54:43;;;;;;;2.20;2.10;;;8.60;66.00;;;;;;4992605;28;20198;-72
2023/01/21 12:57:19;;;;;;;2.40;2.30;;;8.70;63.10;;;;;;5022090;28;20758;-72
2023/01/21 12:59:53;;;;;;;2.55;2.33;;;8.50;64.10;;;;;;5017529;28;20247;-73
2023/01/21 13:02:26;;;;;;;2.40;2.30;;;8.30;64.40;;;;;;4989185;28;20917;-74
2023/01/21 13:05:00;;;;;;;2.10;2.00;;;8.30;64.00;;;;;;5007131;28;20215;-74
2023/01/21 13:07:38;;;;;;;2.50;2.35;;;8.40;66.60;;;;;;5024118;28;20744;-74
2023/01/21 13:10:15;;;;;;;3.00;2.70;;;8.50;64.40;;;;;;5021614;28;20302;-74
2023/01/21 13:12:46;;;;;;;2.63;2.53;;;8.40;65.30;;;;;;5002288;28;20204;-75
2023/01/21 13:15:18;;;;;;;2.30;2.20;;;8.40;65.40;;;;;;5020090;28;20244;-75
2023/01/21 13:17:51;;;;;;;2.40;2.30;;;8.20;64.20;;;;;;5018257;28;20953;-75